Time;durP1;ratioP1;P1;durP2;ratioP2;P2;SDS_P1;SDS_P2;PMS_P1;PMS_P2;Temp;Humidity;BMP_temperature;BMP_pressure;BME280_temperature;BME280_humidity;BME280_pressure;Samples;Min_cycle;Max_cycle;Signal;HPM_P1;HPM_P2
2022/07/10 00:00:26;;;;;;;8.27;1.85;;;;;;;13.36;100.00;97399.81;5021288;28;20141;-73
2022/07/10 00:02:54;;;;;;;6.53;1.70;;;;;;;13.36;100.00;97395.25;5020844;28;20119;-74
2022/07/10 00:05:20;;;;;;;5.93;1.70;;;;;;;13.30;100.00;97398.09;5022971;28;20119;-73
2022/07/10 00:07:47;;;;;;;9.05;1.95;;;;;;;13.25;100.00;97393.47;5022694;28;20041;-73
2022/07/10 00:10:12;;;;;;;7.82;1.80;;;;;;;13.27;100.00;97393.22;5020700;28;20508;-73
2022/07/10 00:12:38;;;;;;;7.75;1.60;;;;;;;13.13;100.00;97395.34;5025554;28;20248;-74
2022/07/10 00:15:04;;;;;;;8.60;1.63;;;;;;;13.03;100.00;97379.88;5020745;28;20071;-73
2022/07/10 00:17:31;;;;;;;8.25;1.40;;;;;;;13.01;100.00;97392.75;5022475;28;20285;-73
2022/07/10 00:19:56;;;;;;;5.88;1.70;;;;;;;12.97;100.00;97388.09;5020960;28;20063;-73
2022/07/10 00:22:22;;;;;;;4.30;1.55;;;;;;;12.98;100.00;97390.53;5021744;28;20029;-72
2022/07/10 00:24:50;;;;;;;5.38;1.73;;;;;;;13.06;100.00;97390.13;5021594;28;20041;-73
2022/07/10 00:27:16;;;;;;;9.98;1.92;;;;;;;13.07;100.00;97390.94;5020557;28;20234;-72
2022/07/10 00:29:41;;;;;;;8.55;1.98;;;;;;;13.03;100.00;97385.25;5021051;28;20041;-73
2022/07/10 00:32:07;;;;;;;5.05;1.40;;;;;;;12.99;100.00;97384.09;5020986;28;20056;-73
2022/07/10 00:34:33;;;;;;;3.35;1.45;;;;;;;13.02;100.00;97389.00;5021663;28;20659;-73
2022/07/10 00:36:58;;;;;;;6.47;1.80;;;;;;;13.02;100.00;97383.63;5022312;28;20116;-73
2022/07/10 00:39:23;;;;;;;4.47;1.80;;;;;;;12.98;100.00;97385.16;5021296;28;20045;-73
2022/07/10 00:41:49;;;;;;;8.18;1.73;;;;;;;12.97;100.00;97388.91;5022871;28;20056;-73
2022/07/10 00:44:14;;;;;;;4.55;1.58;;;;;;;12.85;100.00;97390.84;5021964;28;20758;-73
2022/07/10 00:46:40;;;;;;;5.45;1.90;;;;;;;12.79;100.00;97400.66;5021422;28;20355;-73
2022/07/10 00:49:06;;;;;;;8.05;2.17;;;;;;;12.83;100.00;97395.59;5020877;28;20052;-73
2022/07/10 00:51:33;;;;;;;6.10;1.60;;;;;;;12.81;100.00;97395.03;5023060;28;20160;-72
2022/07/10 00:54:00;;;;;;;6.80;1.70;;;;;;;12.86;100.00;97399.72;5021273;28;20030;-73
2022/07/10 00:56:27;;;;;;;6.95;1.75;;;;;;;12.82;100.00;97394.78;5022269;28;20378;-72
2022/07/10 00:58:53;;;;;;;6.63;1.73;;;;;;;12.82;100.00;97396.66;5020082;28;20269;-73
2022/07/10 01:01:20;;;;;;;4.78;1.75;;;;;;;12.80;100.00;97404.97;5023013;28;20041;-73
2022/07/10 01:03:46;;;;;;;7.97;2.08;;;;;;;12.63;100.00;97392.56;5019698;28;20033;-73
2022/07/10 01:06:13;;;;;;;6.93;2.28;;;;;;;12.39;100.00;97400.66;5022402;28;20071;-72
2022/07/10 01:08:39;;;;;;;6.50;1.80;;;;;;;12.10;100.00;97407.00;5025871;28;20260;-72
2022/07/10 01:11:05;;;;;;;9.63;1.70;;;;;;;11.93;100.00;97398.88;5021685;28;20040;-73
2022/07/10 01:13:31;;;;;;;4.47;1.30;;;;;;;11.79;100.00;97392.88;5036215;28;20420;-73
2022/07/10 01:15:57;;;;;;;3.65;1.40;;;;;;;11.63;100.00;97398.94;5019659;28;20492;-72
2022/07/10 01:18:25;;;;;;;11.20;1.63;;;;;;;11.53;100.00;97393.34;5022620;28;21712;-72
2022/07/10 01:20:52;;;;;;;4.93;1.42;;;;;;;11.32;100.00;97395.53;5022561;28;20033;-72
2022/07/10 01:23:17;;;;;;;7.05;1.80;;;;;;;11.23;100.00;97396.09;5022397;28;20116;-73
2022/07/10 01:25:43;;;;;;;5.47;1.77;;;;;;;11.19;100.00;97397.56;5022672;28;20051;-72
2022/07/10 01:28:08;;;;;;;4.40;1.52;;;;;;;11.14;100.00;97399.09;5021015;28;20048;-72
2022/07/10 01:30:33;;;;;;;5.50;1.45;;;;;;;11.09;100.00;97396.28;5018847;28;20436;-72
2022/07/10 01:32:59;;;;;;;6.68;1.58;;;;;;;11.09;100.00;97395.47;5023189;28;20487;-72
2022/07/10 01:35:25;;;;;;;3.83;1.25;;;;;;;11.03;100.00;97396.38;5018944;28;20029;-72
2022/07/10 01:37:50;;;;;;;6.55;1.30;;;;;;;10.96;100.00;97391.09;5022151;28;20701;-72
2022/07/10 01:40:16;;;;;;;6.35;1.33;;;;;;;10.83;100.00;97386.78;5021595;28;20067;-72
2022/07/10 01:42:41;;;;;;;7.22;1.40;;;;;;;10.84;100.00;97380.38;5020350;28;20037;-73
2022/07/10 01:45:08;;;;;;;3.75;1.20;;;;;;;10.75;100.00;97379.06;5018380;28;20485;-73
2022/07/10 01:47:34;;;;;;;8.00;1.55;;;;;;;10.64;100.00;97390.53;5016347;28;20043;-72
2022/07/10 01:50:03;;;;;;;6.63;1.50;;;;;;;10.43;100.00;97375.78;5020427;28;20040;-72
2022/07/10 01:52:29;;;;;;;5.05;1.40;;;;;;;10.29;100.00;97379.66;5020325;28;20051;-73
2022/07/10 01:54:54;;;;;;;7.43;1.50;;;;;;;10.14;100.00;97380.00;5018612;28;20033;-72
2022/07/10 01:57:20;;;;;;;8.68;1.52;;;;;;;10.09;100.00;97379.84;5021869;28;20041;-72
2022/07/10 01:59:46;;;;;;;9.18;2.05;;;;;;;10.01;100.00;97388.16;5017464;28;20099;-73
2022/07/10 02:02:11;;;;;;;5.68;1.48;;;;;;;9.91;100.00;97394.03;5020906;28;20037;-73
2022/07/10 02:04:42;;;;;;;5.68;1.48;;;;;;;9.91;100.00;97382.50;5020798;28;20448;-72
2022/07/10 02:07:16;;;;;;;13.35;2.20;;;;;;;9.92;100.00;97389.50;5019887;28;20032;-72
2022/07/10 02:09:43;;;;;;;8.15;3.03;;;;;;;9.95;100.00;97383.69;5019847;28;20037;-73
2022/07/10 02:12:10;;;;;;;5.78;1.80;;;;;;;10.05;100.00;97378.66;5019382;28;20111;-73
2022/07/10 02:14:36;;;;;;;5.68;1.48;;;;;;;10.02;100.00;97379.91;5019447;28;20627;-72
2022/07/10 02:17:03;;;;;;;5.07;1.77;;;;;;;10.02;100.00;97379.91;5020992;28;20468;-73
2022/07/10 02:19:29;;;;;;;5.50;1.50;;;;;;;9.95;100.00;97387.19;5017200;28;20561;-73
2022/07/10 02:21:55;;;;;;;7.40;1.65;;;;;;;9.94;100.00;97380.19;5020209;28;20045;-73
2022/07/10 02:24:21;;;;;;;6.15;1.58;;;;;;;9.84;100.00;97379.91;5017690;28;20041;-73
2022/07/10 02:26:46;;;;;;;6.97;1.90;;;;;;;9.82;100.00;97381.16;5018576;28;20419;-72
2022/07/10 02:29:12;;;;;;;5.20;1.67;;;;;;;9.75;100.00;97387.41;5019218;28;20393;-72
2022/07/10 02:31:40;;;;;;;5.63;1.50;;;;;;;9.70;100.00;97381.88;5017579;28;20508;-73
2022/07/10 02:34:10;;;;;;;5.43;1.77;;;;;;;9.60;100.00;97376.22;5018827;28;20096;-72
2022/07/10 02:36:38;;;;;;;10.45;1.83;;;;;;;9.60;100.00;97381.56;5021519;28;20038;-73
2022/07/10 02:39:04;;;;;;;7.60;1.63;;;;;;;9.67;100.00;97376.16;5022159;28;20037;-73
2022/07/10 02:41:30;;;;;;;6.43;1.70;;;;;;;9.72;100.00;97379.78;5022262;28;20033;-73
2022/07/10 02:43:55;;;;;;;8.95;1.88;;;;;;;9.70;100.00;97375.72;5021563;28;20033;-72
2022/07/10 02:46:21;;;;;;;5.72;2.00;;;;;;;9.63;100.00;97365.09;5020509;28;20033;-73
2022/07/10 02:48:46;;;;;;;7.72;1.92;;;;;;;9.66;100.00;97370.00;5017632;28;20436;-73
2022/07/10 02:51:12;;;;;;;7.50;1.50;;;;;;;9.64;100.00;97377.41;5021049;28;20214;-73
2022/07/10 02:53:37;;;;;;;10.07;1.90;;;;;;;9.70;100.00;97383.75;5017183;28;20134;-72
2022/07/10 02:56:03;;;;;;;5.72;1.50;;;;;;;9.63;100.00;97375.78;5021576;28;20636;-73
2022/07/10 02:58:28;;;;;;;6.00;1.67;;;;;;;9.62;100.00;97384.03;5019135;28;20120;-72
2022/07/10 03:00:54;;;;;;;10.93;1.90;;;;;;;9.54;100.00;97381.63;5019150;28;20227;-73
2022/07/10 03:03:19;;;;;;;8.02;1.60;;;;;;;9.52;100.00;97379.19;5021262;28;20124;-73
2022/07/10 03:05:45;;;;;;;4.85;1.50;;;;;;;9.47;100.00;97376.34;5023549;28;20551;-73
2022/07/10 03:08:12;;;;;;;5.65;1.63;;;;;;;9.37;100.00;97370.69;5019100;28;20333;-72
2022/07/10 03:10:37;;;;;;;7.63;2.05;;;;;;;9.38;100.00;97378.47;5019212;28;20032;-73
2022/07/10 03:13:03;;;;;;;5.80;1.90;;;;;;;9.29;100.00;97384.31;5021802;28;20043;-72
2022/07/10 03:15:28;;;;;;;10.20;1.80;;;;;;;9.43;100.00;97375.16;5021049;28;20033;-73
2022/07/10 03:17:54;;;;;;;12.35;1.80;;;;;;;9.50;100.00;97378.59;5019567;28;20091;-73
2022/07/10 03:20:20;;;;;;;6.78;2.10;;;;;;;9.49;100.00;97384.94;5019732;28;20135;-73
2022/07/10 03:22:45;;;;;;;7.18;1.80;;;;;;;9.54;100.00;97369.09;5018671;28;20061;-72
2022/07/10 03:25:11;;;;;;;6.55;1.98;;;;;;;9.54;100.00;97381.63;5019326;28;20375;-72
2022/07/10 03:27:37;;;;;;;8.38;1.63;;;;;;;9.58;100.00;97372.16;5019294;28;20029;-72
2022/07/10 03:30:04;;;;;;;8.23;1.90;;;;;;;9.66;100.00;97379.88;5017495;28;20373;-73
2022/07/10 03:32:29;;;;;;;4.82;1.80;;;;;;;9.81;100.00;97367.00;5018963;28;20041;-72
2022/07/10 03:34:55;;;;;;;7.35;1.67;;;;;;;10.03;100.00;97370.03;5018987;28;20034;-73
2022/07/10 03:37:20;;;;;;;5.25;1.70;;;;;;;10.19;100.00;97365.94;5019798;28;20041;-73
2022/07/10 03:39:46;;;;;;;9.73;1.92;;;;;;;10.29;100.00;97369.75;5021005;28;20126;-73
2022/07/10 03:42:11;;;;;;;5.28;1.60;;;;;;;10.31;100.00;97367.69;5024197;28;20392;-72
2022/07/10 03:44:37;;;;;;;5.82;1.38;;;;;;;10.35;100.00;97369.88;5030584;28;20025;-72
2022/07/10 03:47:03;;;;;;;7.22;1.70;;;;;;;10.31;100.00;97373.03;5024718;28;20116;-73
2022/07/10 03:49:28;;;;;;;5.85;1.95;;;;;;;10.29;100.00;97375.13;5023139;28;20033;-73
2022/07/10 03:51:54;;;;;;;7.38;1.70;;;;;;;10.33;100.00;97370.94;5022955;28;20475;-73
2022/07/10 03:54:19;;;;;;;6.57;1.50;;;;;;;10.35;100.00;97378.75;5021658;28;20059;-72
2022/07/10 03:59:29;;;;;;;6.70;1.88;;;;;;;10.53;100.00;97389.44;5020711;28;20037;-72
2022/07/10 04:01:54;;;;;;;6.95;1.60;;;;;;;10.57;100.00;97387.94;5021839;28;20064;-72
2022/07/10 04:04:20;;;;;;;6.65;1.60;;;;;;;10.54;100.00;97382.22;5023067;28;20510;-73
2022/07/10 04:06:45;;;;;;;7.18;1.58;;;;;;;10.55;100.00;97394.56;5023397;28;20031;-72
2022/07/10 04:09:11;;;;;;;4.05;1.35;;;;;;;10.59;100.00;97390.41;5021815;28;20040;-73
2022/07/10 04:11:36;;;;;;;6.80;1.88;;;;;;;10.64;100.00;97381.69;5024500;28;20109;-72
2022/07/10 04:14:01;;;;;;;8.50;1.70;;;;;;;10.67;100.00;97387.41;5021638;28;20518;-72
2022/07/10 04:16:27;;;;;;;10.98;1.90;;;;;;;10.64;100.00;97381.69;5023826;28;20531;-73
2022/07/10 04:18:53;;;;;;;4.13;1.50;;;;;;;10.66;100.00;97384.94;5029598;28;20032;-73
2022/07/10 04:21:19;;;;;;;4.07;1.60;;;;;;;10.70;100.00;97376.25;5021697;28;20029;-73
2022/07/10 04:23:44;;;;;;;6.00;2.10;;;;;;;10.80;100.00;97373.81;5020752;28;20373;-72
2022/07/10 04:26:10;;;;;;;6.90;1.50;;;;;;;10.83;100.00;97377.94;5022360;28;20069;-73
2022/07/10 04:28:35;;;;;;;6.93;1.40;;;;;;;10.81;100.00;97372.78;5020637;28;20036;-73
2022/07/10 04:31:01;;;;;;;6.53;1.40;;;;;;;10.73;100.00;97380.31;5018885;28;20523;-73
2022/07/10 04:33:26;;;;;;;5.90;1.63;;;;;;;10.69;100.00;97384.50;5036003;28;20098;-73
2022/07/10 04:35:52;;;;;;;6.05;2.00;;;;;;;10.61;100.00;97380.28;5021786;28;20036;-73
2022/07/10 04:38:17;;;;;;;6.45;1.60;;;;;;;10.54;100.00;97384.91;5022451;28;20033;-72
2022/07/10 04:40:43;;;;;;;8.48;1.95;;;;;;;10.41;100.00;97379.69;5024868;28;20417;-73
2022/07/10 04:43:10;;;;;;;7.97;1.70;;;;;;;10.30;100.00;97386.63;5021180;28;20042;-73
2022/07/10 04:45:37;;;;;;;10.82;1.75;;;;;;;10.24;100.00;97391.00;5020893;28;20037;-73
2022/07/10 04:48:04;;;;;;;12.93;2.20;;;;;;;10.24;100.00;97388.34;5018716;28;20348;-71
2022/07/10 04:50:30;;;;;;;4.05;1.50;;;;;;;10.41;100.00;97393.91;5022799;28;20224;-72
2022/07/10 04:52:56;;;;;;;11.90;1.58;;;;;;;10.54;100.00;97398.28;5020229;28;20739;-72
2022/07/10 04:55:22;;;;;;;3.88;1.50;;;;;;;10.70;100.00;97391.47;5020933;28;20033;-72
2022/07/10 04:57:47;;;;;;;6.10;1.88;;;;;;;10.83;100.00;97383.28;5022183;28;20495;-72
2022/07/10 05:00:13;;;;;;;6.30;1.42;;;;;;;10.68;100.00;97389.03;5020215;28;20128;-71
2022/07/10 05:02:39;;;;;;;10.07;1.80;;;;;;;10.45;100.00;97378.22;5021304;28;20430;-72
2022/07/10 05:05:05;;;;;;;7.93;1.67;;;;;;;10.38;100.00;97389.00;5023024;28;20325;-74
2022/07/10 05:07:30;;;;;;;5.25;1.35;;;;;;;10.40;100.00;97394.13;5022296;28;20643;-73
2022/07/10 05:09:56;;;;;;;5.40;1.45;;;;;;;10.57;100.00;97392.47;5020402;28;20029;-73
2022/07/10 05:12:21;;;;;;;5.47;1.23;;;;;;;10.73;100.00;97388.34;5023125;28;20116;-73
2022/07/10 05:14:47;;;;;;;7.82;1.58;;;;;;;10.82;100.00;97395.84;5023125;28;20044;-73
2022/07/10 05:17:12;;;;;;;5.55;1.48;;;;;;;10.96;100.00;97398.31;5023065;28;20365;-73
2022/07/10 05:19:38;;;;;;;4.40;1.35;;;;;;;11.06;100.00;97395.94;5020862;28;20086;-73
2022/07/10 05:22:03;;;;;;;10.50;1.98;;;;;;;11.19;100.00;97400.25;5021471;28;20068;-73
2022/07/10 05:24:31;;;;;;;7.13;1.88;;;;;;;11.29;100.00;97408.56;5022491;28;20420;-73
2022/07/10 05:26:56;;;;;;;6.90;1.40;;;;;;;11.38;100.00;97410.69;5023386;28;20053;-73
2022/07/10 05:29:22;;;;;;;7.70;1.60;;;;;;;11.51;100.00;97409.63;5020903;28;20029;-73
2022/07/10 05:31:47;;;;;;;5.78;1.63;;;;;;;11.61;100.00;97404.53;5027140;28;20537;-73
2022/07/10 05:34:13;;;;;;;7.03;1.55;;;;;;;11.63;100.00;97407.78;5018803;28;20807;-73
2022/07/10 05:36:38;;;;;;;4.97;1.30;;;;;;;11.64;100.00;97412.09;5018451;28;20506;-73
2022/07/10 05:39:04;;;;;;;5.97;1.80;;;;;;;11.69;100.00;97404.19;5018832;28;20534;-74
2022/07/10 05:41:32;;;;;;;6.45;1.95;;;;;;;11.70;100.00;97402.31;5023282;28;20482;-73
2022/07/10 05:43:58;;;;;;;6.95;1.73;;;;;;;11.76;100.00;97401.41;5020738;28;20021;-73
2022/07/10 05:46:24;;;;;;;10.85;1.55;;;;;;;11.85;100.00;97400.03;5021865;28;20177;-73
2022/07/10 05:48:49;;;;;;;5.00;1.30;;;;;;;12.01;100.00;97406.56;5019625;28;20459;-73
2022/07/10 05:51:15;;;;;;;5.93;1.38;;;;;;;11.91;100.00;97398.28;5019353;28;20076;-73
2022/07/10 05:53:40;;;;;;;8.18;1.80;;;;;;;12.05;100.00;97401.53;5020699;28;20291;-73
2022/07/10 05:56:06;;;;;;;5.88;1.27;;;;;;;12.11;100.00;97401.41;5025802;28;20124;-72
2022/07/10 05:58:31;;;;;;;4.32;1.35;;;;;;;12.22;100.00;97400.59;5021060;28;20033;-73
2022/07/10 06:00:57;;;;;;;6.35;1.20;;;;;;;12.05;100.00;97399.66;5018942;28;20067;-74
2022/07/10 06:03:22;;;;;;;5.38;1.60;;;;;;;12.07;100.00;97397.56;5021073;28;20052;-73
2022/07/10 06:05:48;;;;;;;10.75;1.98;;;;;;;12.15;100.00;97399.09;5024228;28;20042;-73
2022/07/10 06:08:13;;;;;;;9.85;1.60;;;;;;;12.04;100.00;97402.56;5018852;28;20143;-73
2022/07/10 06:10:43;;;;;;;6.78;1.83;;;;;;;11.94;100.00;97406.66;5023528;28;20041;-74
2022/07/10 06:13:10;;;;;;;10.80;1.30;;;;;;;11.99;100.00;97411.34;5022503;28;20357;-74
2022/07/10 06:15:36;;;;;;;6.22;1.30;;;;;;;12.02;100.00;97407.38;5021871;28;20052;-72
2022/07/10 06:18:02;;;;;;;7.75;1.45;;;;;;;12.31;100.00;97406.41;5018340;28;20083;-72
2022/07/10 06:20:28;;;;;;;9.23;1.58;;;;;;;12.40;100.00;97404.97;5021493;28;20128;-73
2022/07/10 06:22:54;;;;;;;7.40;1.50;;;;;;;12.45;100.00;97415.00;5020858;28;20129;-74
2022/07/10 06:25:19;;;;;;;8.38;1.40;;;;;;;12.42;100.00;97402.88;5021560;28;20044;-73
2022/07/10 06:27:44;;;;;;;8.27;1.45;;;;;;;12.29;100.00;97411.16;5020714;28;20101;-74
2022/07/10 06:30:10;;;;;;;4.60;1.45;;;;;;;12.44;100.00;97410.69;5020734;28;20143;-73
2022/07/10 06:32:36;;;;;;;4.68;1.35;;;;;;;12.53;100.00;97409.28;5033702;28;20044;-73
2022/07/10 06:35:03;;;;;;;7.50;1.60;;;;;;;12.60;100.00;97401.06;5019108;28;20536;-73
2022/07/10 06:37:30;;;;;;;5.10;1.48;;;;;;;12.86;100.00;97397.84;5023814;28;20054;-73
2022/07/10 06:39:55;;;;;;;7.45;1.92;;;;;;;12.92;100.00;97399.56;4672966;28;9999989;-73
2022/07/10 06:42:21;;;;;;;8.73;1.80;;;;;;;12.96;100.00;97392.63;5021710;28;20025;-73
2022/07/10 06:44:49;;;;;;;6.13;1.48;;;;;;;13.01;100.00;97395.44;5023014;28;20068;-73
2022/07/10 06:50:05;;;;;;;10.63;1.85;;;;;;;12.85;100.00;97398.09;5019773;28;20033;-73
2022/07/10 06:52:32;;;;;;;7.93;1.70;;;;;;;12.98;100.00;97393.22;5019367;28;20025;-73
2022/07/10 06:54:58;;;;;;;7.90;1.90;;;;;;;13.06;100.00;97392.00;5020415;28;20115;-73
2022/07/10 06:57:24;;;;;;;6.22;1.67;;;;;;;12.88;100.00;97397.59;5019859;28;20038;-73
2022/07/10 06:59:49;;;;;;;6.97;1.80;;;;;;;12.92;100.00;97398.72;5018230;28;20411;-74
2022/07/10 07:02:16;;;;;;;8.65;1.70;;;;;;;12.99;100.00;97391.34;5018773;28;20098;-71
2022/07/10 07:04:44;;;;;;;3.53;1.40;;;;;;;12.93;100.00;97384.25;5017304;28;20029;-72
2022/07/10 07:07:10;;;;;;;7.72;1.40;;;;;;;12.58;100.00;97395.94;5019211;28;20721;-73
2022/07/10 07:09:35;;;;;;;5.28;1.45;;;;;;;12.71;100.00;97397.53;5017966;28;20052;-72
2022/07/10 07:12:01;;;;;;;6.30;1.70;;;;;;;12.92;100.00;97404.09;5018288;28;20474;-72
2022/07/10 07:14:26;;;;;;;11.20;1.98;;;;;;;13.02;100.00;97399.75;5023466;28;20041;-73
2022/07/10 07:17:00;;;;;;;8.82;1.73;;;;;;;13.18;100.00;97402.72;5024118;28;20045;-73
2022/07/10 07:23:09;;;;;;;7.30;1.70;;;;;;;13.44;100.00;97396.72;5029159;28;20437;-73
2022/07/10 07:25:02;;;;;;;7.13;2.00;;;;;;;13.87;100.00;97400.63;5023931;28;20041;-74
2022/07/10 07:27:27;;;;;;;3.75;1.50;;;;;;;13.95;100.00;97402.91;5023124;28;20273;-72
2022/07/10 07:29:53;;;;;;;6.47;1.55;;;;;;;13.88;100.00;97391.50;5020623;28;20055;-74
2022/07/10 07:32:18;;;;;;;5.82;1.48;;;;;;;13.49;100.00;97394.13;5023011;28;20041;-74
2022/07/10 07:34:44;;;;;;;7.82;1.60;;;;;;;13.34;100.00;97391.19;5021750;28;20033;-72
2022/07/10 07:37:09;;;;;;;8.88;1.83;;;;;;;13.14;100.00;97402.34;5022991;28;20036;-73
2022/07/10 07:39:36;;;;;;;6.22;1.27;;;;;;;13.24;100.00;97399.91;5019537;28;20263;-73
2022/07/10 07:42:01;;;;;;;6.65;1.48;;;;;;;13.62;100.00;97399.19;5017063;28;20110;-72
2022/07/10 07:44:27;;;;;;;6.50;1.77;;;;;;;13.67;100.00;97398.44;5018789;28;20036;-73
2022/07/10 07:46:52;;;;;;;10.70;1.70;;;;;;;13.73;100.00;97393.97;5022338;28;20043;-73
2022/07/10 07:49:18;;;;;;;11.30;1.92;;;;;;;13.77;100.00;97401.28;5021365;28;20091;-73
2022/07/10 07:51:43;;;;;;;7.28;1.80;;;;;;;14.13;100.00;97399.94;5023289;28;20038;-73
2022/07/10 07:54:09;;;;;;;10.07;1.77;;;;;;;14.33;100.00;97394.03;5020472;28;20087;-72
2022/07/10 07:56:34;;;;;;;7.10;1.80;;;;;;;14.38;100.00;97402.16;5023434;28;20386;-73
2022/07/10 07:59:00;;;;;;;12.05;2.25;;;;;;;14.29;100.00;97395.56;5023689;28;20054;-73
2022/07/10 08:01:27;;;;;;;6.28;1.45;;;;;;;14.30;100.00;97399.06;5022221;28;20046;-73
2022/07/10 08:03:55;;;;;;;9.23;1.80;;;;;;;14.43;100.00;97402.22;5020942;28;20523;-73
2022/07/10 08:06:21;;;;;;;7.55;1.65;;;;;;;14.55;100.00;97398.59;5021938;28;20033;-73
2022/07/10 08:08:46;;;;;;;6.63;1.40;;;;;;;14.42;100.00;97399.78;5022468;28;20047;-72
2022/07/10 08:11:12;;;;;;;5.90;1.25;;;;;;;14.16;100.00;97390.53;5023192;28;20079;-72
2022/07/10 08:13:37;;;;;;;6.80;1.15;;;;;;;13.85;100.00;97387.44;5020195;28;20459;-73
2022/07/10 08:16:03;;;;;;;6.93;1.23;;;;;;;13.61;100.00;97381.41;5021144;28;20205;-72
2022/07/10 08:18:31;;;;;;;5.20;1.20;;;;;;;13.62;100.00;97383.06;5020893;28;20037;-73
2022/07/10 08:20:56;;;;;;;7.63;1.55;;;;;;;13.60;100.00;97377.09;5023778;28;20029;-72
2022/07/10 08:23:21;;;;;;;7.18;1.10;;;;;;;13.88;100.00;97367.28;5023699;28;20029;-73
2022/07/10 08:25:47;;;;;;;5.47;1.15;;;;;;;14.15;100.00;97375.47;5021658;28;20330;-72
2022/07/10 08:28:12;;;;;;;6.80;1.02;;;;;;;14.62;100.00;97367.72;5022663;28;20146;-73
2022/07/10 08:30:38;;;;;;;6.95;1.08;;;;;;;15.05;100.00;97363.34;5025676;28;20242;-73
2022/07/10 08:33:04;;;;;;;6.10;1.08;;;;;;;15.16;100.00;97370.44;5025696;28;20400;-72
2022/07/10 08:35:30;;;;;;;4.53;1.10;;;;;;;15.05;100.00;97374.94;4989044;28;20365;-73
2022/07/10 08:37:55;;;;;;;7.68;1.30;;;;;;;15.12;100.00;97380.13;5025603;28;20072;-72
2022/07/10 08:40:22;;;;;;;5.78;1.00;;;;;;;15.16;100.00;97378.53;5027502;28;20163;-73
2022/07/10 08:42:48;;;;;;;11.32;1.95;;;;;;;15.35;100.00;97370.09;5026478;28;20037;-72
2022/07/10 08:45:13;;;;;;;6.55;1.20;;;;;;;15.40;100.00;97372.81;5026144;28;20106;-72
2022/07/10 08:47:44;;;;;;;12.43;1.45;;;;;;;15.39;100.00;97376.59;5024022;28;20037;-73
2022/07/10 08:50:37;;;;;;;7.57;1.40;;;;;;;15.32;100.00;97380.28;5024716;28;20546;-73
2022/07/10 08:53:18;;;;;;;7.57;1.40;;;;;;;15.05;100.00;97383.03;5025083;28;20095;-73
2022/07/10 08:55:44;;;;;;;6.30;1.10;;;;;;;14.91;100.00;97397.16;5025705;28;20037;-72
2022/07/10 08:58:11;;;;;;;5.82;1.10;;;;;;;14.66;100.00;97390.41;5024413;28;20032;-72
2022/07/10 09:00:38;;;;;;;7.18;1.30;;;;;;;14.83;100.00;97381.44;5022295;28;20037;-73
2022/07/10 09:03:03;;;;;;;7.45;1.33;;;;;;;14.89;100.00;97392.00;5025506;28;20069;-73
2022/07/10 09:05:29;;;;;;;4.70;1.08;;;;;;;15.25;100.00;97385.09;5023704;28;20116;-73
2022/07/10 09:07:55;;;;;;;8.57;1.45;;;;;;;15.55;100.00;97387.22;5022964;28;20072;-72
2022/07/10 09:10:25;;;;;;;2.70;0.80;;;;;;;15.80;100.00;97389.38;5024632;28;20061;-73
2022/07/10 09:12:56;;;;;;;8.43;1.48;;;;;;;16.08;100.00;97390.06;5025171;28;20112;-72
2022/07/10 09:15:26;;;;;;;4.07;1.08;;;;;;;16.17;100.00;97385.78;5023429;28;20255;-73
2022/07/10 09:18:07;;;;;;;3.60;0.88;;;;;;;16.48;100.00;97396.75;5024288;28;20267;-73
2022/07/10 09:20:35;;;;;;;4.97;0.93;;;;;;;16.53;99.93;97392.19;5024945;28;20037;-73
2022/07/10 09:23:19;;;;;;;7.65;1.25;;;;;;;16.36;100.00;97391.59;5023796;28;20424;-72
2022/07/10 09:25:53;;;;;;;6.45;1.17;;;;;;;16.14;100.00;97380.94;5024467;28;20462;-73
2022/07/10 09:28:23;;;;;;;3.97;0.95;;;;;;;16.11;100.00;97382.28;5023243;28;20072;-72
2022/07/10 09:30:49;;;;;;;4.78;0.90;;;;;;;16.29;100.00;97386.41;5020198;28;20412;-73
2022/07/10 09:33:31;;;;;;;3.60;0.80;;;;;;;16.46;100.00;97382.72;5022175;28;20059;-72
2022/07/10 09:36:07;;;;;;;5.20;0.90;;;;;;;16.59;100.00;97374.13;5001509;28;20460;-72
2022/07/10 09:38:44;;;;;;;6.05;1.10;;;;;;;16.45;100.00;97381.91;5025525;28;20480;-73
2022/07/10 09:41:14;;;;;;;12.38;1.05;;;;;;;16.28;100.00;97376.69;5020854;28;20703;-72
2022/07/10 09:43:47;;;;;;;6.47;0.90;;;;;;;16.41;100.00;97376.19;5023930;28;20085;-72
2022/07/10 09:46:13;;;;;;;5.55;1.00;;;;;;;16.64;100.00;97374.13;5025911;28;20333;-72
2022/07/10 09:48:39;;;;;;;5.68;0.75;;;;;;;16.70;98.40;97375.81;5025505;28;20083;-72
2022/07/10 09:51:10;;;;;;;3.30;0.77;;;;;;;16.65;100.00;97376.59;5023029;28;20341;-72
2022/07/10 09:53:44;;;;;;;4.07;1.23;;;;;;;16.51;100.00;97382.75;5022975;28;20552;-72
2022/07/10 09:56:11;;;;;;;5.60;0.80;;;;;;;16.47;100.00;97373.53;5020440;28;20227;-72
2022/07/10 09:58:38;;;;;;;7.45;1.10;;;;;;;16.53;100.00;97383.28;5023546;28;20393;-73
2022/07/10 10:01:08;;;;;;;4.38;0.85;;;;;;;16.61;100.00;97389.00;5021676;28;20215;-73
2022/07/10 10:03:37;;;;;;;5.28;1.00;;;;;;;16.81;99.76;97384.75;5021865;28;20047;-73
2022/07/10 10:06:15;;;;;;;9.63;1.30;;;;;;;17.06;97.44;97371.31;5022143;28;20061;-73
2022/07/10 10:09:08;;;;;;;3.85;0.85;;;;;;;17.21;97.05;97376.75;5023534;28;20040;-73
2022/07/10 10:11:36;;;;;;;7.05;1.40;;;;;;;17.56;97.78;97375.13;5024082;28;20508;-72
2022/07/10 10:14:03;;;;;;;2.97;0.73;;;;;;;17.81;94.51;97371.63;5023306;28;20068;-73
2022/07/10 10:16:29;;;;;;;6.00;0.82;;;;;;;17.80;94.53;97364.59;5025605;28;20112;-73
2022/07/10 10:21:39;;;;;;;6.97;1.00;;;;;;;17.34;99.89;97369.97;5025069;28;20377;-73
2022/07/10 10:24:06;;;;;;;6.65;0.90;;;;;;;17.66;96.57;97372.41;5022509;28;20268;-74
2022/07/10 10:26:32;;;;;;;4.32;1.20;;;;;;;18.01;95.76;97368.91;5023857;28;20120;-73
2022/07/10 10:29:00;;;;;;;3.58;0.65;;;;;;;18.32;92.60;97376.94;5023092;28;20060;-73
2022/07/10 10:31:28;;;;;;;4.43;1.40;;;;;;;18.25;95.23;97365.59;5021777;28;20539;-73
2022/07/10 10:33:55;;;;;;;3.95;0.68;;;;;;;18.40;93.30;97376.38;4328957;28;10000525;-73
2022/07/10 10:36:44;;;;;;;4.28;0.93;;;;;;;17.97;96.75;97367.81;5020275;28;20265;-74
2022/07/10 10:39:13;;;;;;;4.00;0.90;;;;;;;17.50;100.00;97365.38;4990700;28;20053;-73
2022/07/10 10:41:49;;;;;;;4.88;0.88;;;;;;;17.43;99.81;97364.84;5018898;28;20388;-73
2022/07/10 10:44:15;;;;;;;9.18;1.15;;;;;;;17.84;100.00;97371.09;5020585;28;20156;-73
2022/07/10 10:46:50;;;;;;;7.78;0.85;;;;;;;18.15;95.96;97371.84;5022493;28;20021;-73
2022/07/10 10:49:18;;;;;;;4.65;0.90;;;;;;;18.87;95.21;97377.84;5023014;28;20108;-73
2022/07/10 10:52:15;;;;;;;4.10;1.92;;;;;;;19.05;93.12;97369.03;5028518;28;20543;-73
2022/07/10 10:55:04;;;;;;;13.50;1.33;;;;;;;18.48;94.83;97366.88;5027959;28;20099;-73
2022/07/10 10:57:32;;;;;;;6.90;1.13;;;;;;;18.67;97.36;97367.88;5027177;28;20045;-73
2022/07/10 10:59:59;;;;;;;7.28;1.20;;;;;;;18.80;96.00;97369.19;5027747;28;20796;-74
2022/07/10 11:02:37;;;;;;;5.07;1.25;;;;;;;18.73;94.92;97371.41;5026141;28;20197;-73
2022/07/10 11:05:21;;;;;;;7.90;1.10;;;;;;;18.70;96.99;97371.97;5027740;28;20041;-73
2022/07/10 11:08:00;;;;;;;6.35;1.10;;;;;;;19.00;95.37;97366.38;5024141;28;20037;-73
2022/07/10 11:10:35;;;;;;;4.90;1.02;;;;;;;19.40;92.23;97369.91;5026861;28;20123;-73
2022/07/10 11:13:02;;;;;;;3.47;0.90;;;;;;;20.05;91.66;97375.88;5025649;28;20076;-74
2022/07/10 11:15:30;;;;;;;5.40;0.80;;;;;;;20.19;90.69;97373.28;5024751;28;20040;-73
2022/07/10 11:18:03;;;;;;;7.57;1.52;;;;;;;21.07;87.10;97366.50;5025786;28;20037;-73
2022/07/10 11:20:33;;;;;;;4.03;1.13;;;;;;;21.72;84.05;97358.47;5025495;28;20048;-73
2022/07/10 11:23:22;;;;;;;4.32;0.90;;;;;;;21.83;82.72;97364.53;5024927;28;20466;-73
2022/07/10 11:26:11;;;;;;;4.72;1.20;;;;;;;22.20;78.74;97355.47;5021481;28;20393;-74
2022/07/10 11:28:55;;;;;;;3.35;0.82;;;;;;;22.16;74.73;97357.16;5025258;28;20075;-73
2022/07/10 11:31:22;;;;;;;5.97;1.23;;;;;;;21.05;85.25;97371.44;5023801;28;20041;-73
2022/07/10 11:33:51;;;;;;;4.10;0.90;;;;;;;21.06;85.72;97368.44;5024974;28;20041;-73
2022/07/10 11:36:25;;;;;;;5.35;0.90;;;;;;;20.89;84.02;97373.56;5026645;28;20572;-73
2022/07/10 11:38:57;;;;;;;3.45;0.90;;;;;;;20.45;85.54;97371.13;5027073;28;20033;-74